sensor_id;sensor_type;location;lat;lon;timestamp;pressure;altitude;pressure_sealevel;temperature;humidity
3544;BME280;1786;52.870;9.578;2022-09-12T00:01:20;100869.13;;;26.29;47.93
3544;BME280;1786;52.870;9.578;2022-09-12T00:03:51;100874.16;;;26.32;47.49
3544;BME280;1786;52.870;9.578;2022-09-12T00:06:28;100869.94;;;26.29;47.56
3544;BME280;1786;52.870;9.578;2022-09-12T00:08:58;100870.75;;;26.23;47.90
3544;BME280;1786;52.870;9.578;2022-09-12T00:11:25;100866.72;;;26.19;47.84
3544;BME280;1786;52.870;9.578;2022-09-12T00:13:55;100865.03;;;26.18;47.62
3544;BME280;1786;52.870;9.578;2022-09-12T00:16:24;100867.81;;;26.25;47.73
3544;BME280;1786;52.870;9.578;2022-09-12T00:18:51;100871.63;;;26.09;47.67
3544;BME280;1786;52.870;9.578;2022-09-12T00:21:19;100870.91;;;26.22;47.95
3544;BME280;1786;52.870;9.578;2022-09-12T00:23:47;100868.81;;;25.66;48.34
3544;BME280;1786;52.870;9.578;2022-09-12T00:26:15;100861.53;;;25.52;48.78
3544;BME280;1786;52.870;9.578;2022-09-12T00:28:43;100857.78;;;25.53;48.82
3544;BME280;1786;52.870;9.578;2022-09-12T00:31:14;100867.91;;;25.80;48.72
3544;BME280;1786;52.870;9.578;2022-09-12T00:33:41;100864.53;;;25.57;48.84
3544;BME280;1786;52.870;9.578;2022-09-12T00:36:11;100861.50;;;25.81;47.75
3544;BME280;1786;52.870;9.578;2022-09-12T00:38:37;100863.22;;;25.53;48.32
3544;BME280;1786;52.870;9.578;2022-09-12T00:41:14;100854.59;;;25.04;49.61
3544;BME280;1786;52.870;9.578;2022-09-12T00:43:51;100859.41;;;25.17;49.08
3544;BME280;1786;52.870;9.578;2022-09-12T00:46:34;100852.56;;;25.07;49.11
3544;BME280;1786;52.870;9.578;2022-09-12T00:51:48;100851.28;;;25.02;49.46
3544;BME280;1786;52.870;9.578;2022-09-12T00:54:21;100841.47;;;25.01;49.53
3544;BME280;1786;52.870;9.578;2022-09-12T00:56:50;100845.94;;;25.09;49.46
3544;BME280;1786;52.870;9.578;2022-09-12T00:59:25;100838.75;;;24.87;50.09
3544;BME280;1786;52.870;9.578;2022-09-12T01:01:53;100837.75;;;25.17;49.11
3544;BME280;1786;52.870;9.578;2022-09-12T01:04:22;100834.78;;;24.97;49.57
3544;BME280;1786;52.870;9.578;2022-09-12T01:06:50;100829.72;;;24.94;49.38
3544;BME280;1786;52.870;9.578;2022-09-12T01:09:21;100837.19;;;24.92;49.13
3544;BME280;1786;52.870;9.578;2022-09-12T01:11:49;100832.06;;;24.97;49.47
3544;BME280;1786;52.870;9.578;2022-09-12T01:14:17;100825.34;;;24.93;48.99
3544;BME280;1786;52.870;9.578;2022-09-12T01:16:45;100823.69;;;24.92;49.30
3544;BME280;1786;52.870;9.578;2022-09-12T01:27:40;100831.00;;;24.83;48.94
3544;BME280;1786;52.870;9.578;2022-09-12T01:30:31;100833.81;;;24.75;49.15
3544;BME280;1786;52.870;9.578;2022-09-12T01:33:13;100829.88;;;24.63;49.69
3544;BME280;1786;52.870;9.578;2022-09-12T01:39:01;100823.06;;;24.82;49.09
3544;BME280;1786;52.870;9.578;2022-09-12T01:44:24;100828.97;;;24.86;49.02
3544;BME280;1786;52.870;9.578;2022-09-12T01:47:11;100827.19;;;24.78;48.77
3544;BME280;1786;52.870;9.578;2022-09-12T01:49:51;100822.69;;;24.55;48.88
3544;BME280;1786;52.870;9.578;2022-09-12T01:52:35;100822.59;;;24.64;48.75
3544;BME280;1786;52.870;9.578;2022-09-12T01:55:20;100816.53;;;24.61;48.47
3544;BME280;1786;52.870;9.578;2022-09-12T01:57:53;100822.03;;;24.68;48.64
3544;BME280;1786;52.870;9.578;2022-09-12T02:00:23;100817.41;;;24.92;47.92
3544;BME280;1786;52.870;9.578;2022-09-12T02:02:55;100814.25;;;24.88;48.05
3544;BME280;1786;52.870;9.578;2022-09-12T02:05:30;100806.78;;;24.90;48.18
3544;BME280;1786;52.870;9.578;2022-09-12T02:08:05;100810.44;;;24.97;47.51
3544;BME280;1786;52.870;9.578;2022-09-12T02:10:40;100805.66;;;24.99;47.51
3544;BME280;1786;52.870;9.578;2022-09-12T02:13:13;100800.72;;;25.03;47.55
3544;BME280;1786;52.870;9.578;2022-09-12T02:15:46;100799.03;;;25.02;48.30
3544;BME280;1786;52.870;9.578;2022-09-12T02:18:17;100801.66;;;24.95;48.54
3544;BME280;1786;52.870;9.578;2022-09-12T02:20:46;100798.69;;;24.90;47.85
3544;BME280;1786;52.870;9.578;2022-09-12T02:23:23;100791.97;;;24.86;47.96
3544;BME280;1786;52.870;9.578;2022-09-12T02:25:55;100798.75;;;24.82;48.14
3544;BME280;1786;52.870;9.578;2022-09-12T02:28:27;100791.97;;;24.86;47.79
3544;BME280;1786;52.870;9.578;2022-09-12T02:31:02;100788.59;;;24.84;48.14
3544;BME280;1786;52.870;9.578;2022-09-12T02:33:45;100793.94;;;24.77;48.15
3544;BME280;1786;52.870;9.578;2022-09-12T02:36:19;100790.75;;;24.74;48.06
3544;BME280;1786;52.870;9.578;2022-09-12T02:38:54;100791.91;;;24.56;48.19
3544;BME280;1786;52.870;9.578;2022-09-12T02:41:21;100787.19;;;24.58;48.25
3544;BME280;1786;52.870;9.578;2022-09-12T02:43:49;100791.13;;;24.71;47.84
3544;BME280;1786;52.870;9.578;2022-09-12T02:46:28;100791.97;;;24.86;47.95
3544;BME280;1786;52.870;9.578;2022-09-12T02:48:57;100792.34;;;24.98;47.56
3544;BME280;1786;52.870;9.578;2022-09-12T02:51:24;100793.47;;;25.03;47.56
3544;BME280;1786;52.870;9.578;2022-09-12T02:53:52;100791.50;;;24.97;47.20
3544;BME280;1786;52.870;9.578;2022-09-12T02:56:23;100788.81;;;24.97;47.54
3544;BME280;1786;52.870;9.578;2022-09-12T02:58:53;100787.22;;;25.03;47.47
3544;BME280;1786;52.870;9.578;2022-09-12T03:01:45;100786.56;;;25.16;46.87
3544;BME280;1786;52.870;9.578;2022-09-12T03:07:25;100786.72;;;25.14;46.97
3544;BME280;1786;52.870;9.578;2022-09-12T03:10:10;100787.22;;;25.03;47.79
3544;BME280;1786;52.870;9.578;2022-09-12T03:12:48;100795.78;;;25.07;47.18
3544;BME280;1786;52.870;9.578;2022-09-12T03:15:29;100790.28;;;24.85;47.33
3544;BME280;1786;52.870;9.578;2022-09-12T03:24:07;100791.03;;;24.94;47.07
3544;BME280;1786;52.870;9.578;2022-09-12T03:27:01;100779.66;;;24.98;46.91
3544;BME280;1786;52.870;9.578;2022-09-12T03:29:31;100794.00;;;24.99;46.86
3544;BME280;1786;52.870;9.578;2022-09-12T03:31:58;100787.13;;;24.96;47.10
3544;BME280;1786;52.870;9.578;2022-09-12T03:34:26;100783.97;;;24.93;46.92
3544;BME280;1786;52.870;9.578;2022-09-12T03:36:53;100785.06;;;24.98;47.20
3544;BME280;1786;52.870;9.578;2022-09-12T03:39:21;100788.97;;;25.11;46.99
3544;BME280;1786;52.870;9.578;2022-09-12T03:41:50;100787.28;;;25.10;46.88
3544;BME280;1786;52.870;9.578;2022-09-12T03:44:16;100785.78;;;25.07;46.98
3544;BME280;1786;52.870;9.578;2022-09-12T03:46:43;100785.06;;;24.98;47.10
3544;BME280;1786;52.870;9.578;2022-09-12T03:49:10;100785.78;;;25.07;47.22
3544;BME280;1786;52.870;9.578;2022-09-12T03:51:38;100786.09;;;24.97;47.19
3544;BME280;1786;52.870;9.578;2022-09-12T03:54:05;100798.69;;;24.90;47.00
3544;BME280;1786;52.870;9.578;2022-09-12T03:56:32;100796.91;;;24.68;47.41
3544;BME280;1786;52.870;9.578;2022-09-12T03:58:58;100796.38;;;24.49;47.73
3544;BME280;1786;52.870;9.578;2022-09-12T04:01:25;100781.63;;;24.37;47.71
3544;BME280;1786;52.870;9.578;2022-09-12T04:03:51;100782.34;;;24.31;47.76
3544;BME280;1786;52.870;9.578;2022-09-12T04:06:20;100781.97;;;24.34;47.77
3544;BME280;1786;52.870;9.578;2022-09-12T04:08:48;100787.50;;;24.40;47.70
3544;BME280;1786;52.870;9.578;2022-09-12T04:11:17;100782.91;;;24.41;47.74
3544;BME280;1786;52.870;9.578;2022-09-12T04:13:45;100781.72;;;24.44;47.86
3544;BME280;1786;52.870;9.578;2022-09-12T04:16:13;100779.53;;;24.47;47.87
3544;BME280;1786;52.870;9.578;2022-09-12T04:18:40;100783.59;;;24.43;48.07
3544;BME280;1786;52.870;9.578;2022-09-12T04:21:09;100781.72;;;24.44;48.44
3544;BME280;1786;52.870;9.578;2022-09-12T04:23:36;100770.59;;;24.24;48.64
3544;BME280;1786;52.870;9.578;2022-09-12T04:26:04;100776.28;;;24.29;48.39
3544;BME280;1786;52.870;9.578;2022-09-12T04:28:35;100781.63;;;24.37;47.96
3544;BME280;1786;52.870;9.578;2022-09-12T04:31:07;100780.22;;;24.41;48.26
3544;BME280;1786;52.870;9.578;2022-09-12T04:33:35;100778.50;;;24.48;48.32
3544;BME280;1786;52.870;9.578;2022-09-12T04:36:21;100776.50;;;24.42;48.04
3544;BME280;1786;52.870;9.578;2022-09-12T04:38:49;100776.38;;;24.58;47.80
3544;BME280;1786;52.870;9.578;2022-09-12T04:41:22;100771.63;;;24.60;47.70
3544;BME280;1786;52.870;9.578;2022-09-12T04:43:54;100777.28;;;24.51;47.82
3544;BME280;1786;52.870;9.578;2022-09-12T04:46:24;100778.41;;;24.56;47.42
3544;BME280;1786;52.870;9.578;2022-09-12T04:48:51;100781.88;;;24.50;47.49
3544;BME280;1786;52.870;9.578;2022-09-12T04:51:27;100785.53;;;24.34;47.70
3544;BME280;1786;52.870;9.578;2022-09-12T04:53:58;100787.13;;;24.44;47.51
3544;BME280;1786;52.870;9.578;2022-09-12T04:56:26;100781.44;;;24.38;47.44
3544;BME280;1786;52.870;9.578;2022-09-12T04:58:58;100782.88;;;24.26;48.13
3544;BME280;1786;52.870;9.578;2022-09-12T05:01:26;100785.78;;;24.25;48.40
3544;BME280;1786;52.870;9.578;2022-09-12T05:03:54;100784.28;;;24.22;48.36
3544;BME280;1786;52.870;9.578;2022-09-12T05:06:24;100782.41;;;24.23;48.43
3544;BME280;1786;52.870;9.578;2022-09-12T05:08:52;100787.31;;;24.42;48.39
3544;BME280;1786;52.870;9.578;2022-09-12T05:11:21;100788.66;;;24.46;48.15
3544;BME280;1786;52.870;9.578;2022-09-12T05:13:53;100799.75;;;24.51;48.29
3544;BME280;1786;52.870;9.578;2022-09-12T05:16:21;100797.63;;;24.76;47.96
3544;BME280;1786;52.870;9.578;2022-09-12T05:18:48;100798.66;;;24.75;47.90
3544;BME280;1786;52.870;9.578;2022-09-12T05:21:20;100797.75;;;24.83;47.96
3544;BME280;1786;52.870;9.578;2022-09-12T05:23:56;100800.19;;;24.93;47.98
3544;BME280;1786;52.870;9.578;2022-09-12T05:26:25;100804.28;;;25.33;48.89
3544;BME280;1786;52.870;9.578;2022-09-12T05:28:53;100796.69;;;25.80;47.76
3544;BME280;1786;52.870;9.578;2022-09-12T05:31:26;100797.50;;;26.38;47.26
3544;BME280;1786;52.870;9.578;2022-09-12T05:33:54;100809.59;;;27.20;46.00
3544;BME280;1786;52.870;9.578;2022-09-12T05:38:49;100813.47;;;28.67;44.68
3544;BME280;1786;52.870;9.578;2022-09-12T05:41:21;100816.53;;;29.17;44.15
3544;BME280;1786;52.870;9.578;2022-09-12T05:43:52;100817.69;;;29.93;43.31
3544;BME280;1786;52.870;9.578;2022-09-12T05:46:21;100822.34;;;30.49;42.70
3544;BME280;1786;52.870;9.578;2022-09-12T05:48:48;100817.22;;;31.58;40.42
3544;BME280;1786;52.870;9.578;2022-09-12T05:51:23;100824.88;;;32.52;39.28
3544;BME280;1786;52.870;9.578;2022-09-12T05:53:54;100819.38;;;33.23;38.86
3544;BME280;1786;52.870;9.578;2022-09-12T05:56:23;100830.59;;;34.19;37.92
3544;BME280;1786;52.870;9.578;2022-09-12T05:58:58;100834.09;;;35.21;35.84
3544;BME280;1786;52.870;9.578;2022-09-12T06:01:28;100824.25;;;35.47;36.17
3544;BME280;1786;52.870;9.578;2022-09-12T06:03:57;100828.69;;;36.02;35.61
3544;BME280;1786;52.870;9.578;2022-09-12T06:06:27;100830.41;;;36.73;34.88
3544;BME280;1786;52.870;9.578;2022-09-12T06:08:57;100834.97;;;37.57;34.22
3544;BME280;1786;52.870;9.578;2022-09-12T06:11:27;100830.69;;;38.28;33.52
3544;BME280;1786;52.870;9.578;2022-09-12T06:13:56;100831.47;;;38.95;32.99
3544;BME280;1786;52.870;9.578;2022-09-12T06:16:25;100827.94;;;39.54;32.33
3544;BME280;1786;52.870;9.578;2022-09-12T06:18:57;100829.47;;;39.71;32.02
3544;BME280;1786;52.870;9.578;2022-09-12T06:21:25;100823.94;;;39.71;31.96
3544;BME280;1786;52.870;9.578;2022-09-12T06:23:53;100824.59;;;40.36;31.23
3544;BME280;1786;52.870;9.578;2022-09-12T06:26:21;100816.81;;;40.92;30.64
3544;BME280;1786;52.870;9.578;2022-09-12T06:28:49;100815.88;;;41.25;30.85
3544;BME280;1786;52.870;9.578;2022-09-12T06:31:18;100816.44;;;41.65;30.60
3544;BME280;1786;52.870;9.578;2022-09-12T06:33:47;100819.44;;;41.88;30.02
3544;BME280;1786;52.870;9.578;2022-09-12T06:36:25;100825.28;;;42.05;29.68
3544;BME280;1786;52.870;9.578;2022-09-12T06:39:08;100820.19;;;42.12;30.81
3544;BME280;1786;52.870;9.578;2022-09-12T06:41:36;100821.97;;;42.69;29.48
3544;BME280;1786;52.870;9.578;2022-09-12T06:44:14;100818.84;;;42.43;29.72
3544;BME280;1786;52.870;9.578;2022-09-12T06:46:41;100815.41;;;42.32;29.91
3544;BME280;1786;52.870;9.578;2022-09-12T06:49:08;100810.22;;;41.55;30.86
3544;BME280;1786;52.870;9.578;2022-09-12T06:51:35;100815.41;;;41.99;30.67
3544;BME280;1786;52.870;9.578;2022-09-12T06:54:03;100808.25;;;41.93;31.22
3544;BME280;1786;52.870;9.578;2022-09-12T06:56:30;100816.22;;;42.00;30.76
3544;BME280;1786;52.870;9.578;2022-09-12T06:58:58;100808.53;;;41.35;31.43
3544;BME280;1786;52.870;9.578;2022-09-12T07:01:29;100805.28;;;41.70;31.37
3544;BME280;1786;52.870;9.578;2022-09-12T07:03:58;100807.78;;;41.05;31.60
3544;BME280;1786;52.870;9.578;2022-09-12T07:06:28;100810.75;;;41.76;31.13
3544;BME280;1786;52.870;9.578;2022-09-12T07:08:59;100806.56;;;41.59;31.55
3544;BME280;1786;52.870;9.578;2022-09-12T07:11:29;100809.03;;;42.31;30.92
3544;BME280;1786;52.870;9.578;2022-09-12T07:13:58;100817.44;;;42.73;30.66
3544;BME280;1786;52.870;9.578;2022-09-12T07:16:25;100811.59;;;42.88;30.17
3544;BME280;1786;52.870;9.578;2022-09-12T07:18:54;100824.19;;;43.27;30.08
3544;BME280;1786;52.870;9.578;2022-09-12T07:21:21;100815.31;;;43.75;30.73
3544;BME280;1786;52.870;9.578;2022-09-12T07:23:48;100825.06;;;44.32;29.54
3544;BME280;1786;52.870;9.578;2022-09-12T07:26:17;100828.25;;;44.39;30.28
3544;BME280;1786;52.870;9.578;2022-09-12T07:28:50;100831.16;;;45.05;29.99
3544;BME280;1786;52.870;9.578;2022-09-12T07:31:18;100828.59;;;45.17;28.95
3544;BME280;1786;52.870;9.578;2022-09-12T07:33:44;100827.34;;;45.93;29.17
3544;BME280;1786;52.870;9.578;2022-09-12T07:36:13;100830.34;;;46.61;28.52
3544;BME280;1786;52.870;9.578;2022-09-12T07:38:42;100832.03;;;46.45;28.93
3544;BME280;1786;52.870;9.578;2022-09-12T07:41:19;100836.97;;;46.39;28.17
3544;BME280;1786;52.870;9.578;2022-09-12T07:43:47;100837.44;;;46.50;28.75
3544;BME280;1786;52.870;9.578;2022-09-12T07:46:13;100834.56;;;46.20;28.47
3544;BME280;1786;52.870;9.578;2022-09-12T07:48:40;100825.22;;;46.63;28.63
3544;BME280;1786;52.870;9.578;2022-09-12T07:51:09;100837.53;;;47.09;27.89
3544;BME280;1786;52.870;9.578;2022-09-12T07:53:39;100833.94;;;47.09;28.27
3544;BME280;1786;52.870;9.578;2022-09-12T07:56:08;100835.00;;;46.48;28.45
3544;BME280;1786;52.870;9.578;2022-09-12T07:58:36;100836.06;;;46.73;28.91
3544;BME280;1786;52.870;9.578;2022-09-12T08:01:07;100837.28;;;46.55;29.37
3544;BME280;1786;52.870;9.578;2022-09-12T08:03:39;100842.59;;;46.86;28.59
3544;BME280;1786;52.870;9.578;2022-09-12T08:06:15;100837.22;;;46.72;29.13
3544;BME280;1786;52.870;9.578;2022-09-12T08:08:43;100829.91;;;46.24;29.04
3544;BME280;1786;52.870;9.578;2022-09-12T08:11:11;100834.03;;;46.35;28.60
3544;BME280;1786;52.870;9.578;2022-09-12T08:13:39;100819.31;;;44.05;30.92
3544;BME280;1786;52.870;9.578;2022-09-12T08:16:15;100823.75;;;45.00;30.93
3544;BME280;1786;52.870;9.578;2022-09-12T08:18:42;100814.91;;;44.67;30.47
3544;BME280;1786;52.870;9.578;2022-09-12T08:21:18;100817.34;;;45.00;30.47
3544;BME280;1786;52.870;9.578;2022-09-12T08:23:45;100822.28;;;44.09;30.21
3544;BME280;1786;52.870;9.578;2022-09-12T08:26:12;100813.22;;;43.81;31.04
3544;BME280;1786;52.870;9.578;2022-09-12T08:28:43;100816.84;;;44.04;31.04
3544;BME280;1786;52.870;9.578;2022-09-12T08:31:13;100825.59;;;43.75;30.58
3544;BME280;1786;52.870;9.578;2022-09-12T08:33:40;100819.09;;;43.43;31.74
3544;BME280;1786;52.870;9.578;2022-09-12T08:36:15;100822.69;;;43.80;32.70
3544;BME280;1786;52.870;9.578;2022-09-12T08:38:44;100821.22;;;43.82;31.33
3544;BME280;1786;52.870;9.578;2022-09-12T08:47:08;100830.28;;;45.44;30.23
3544;BME280;1786;52.870;9.578;2022-09-12T08:52:10;100814.34;;;44.79;30.11
3544;BME280;1786;52.870;9.578;2022-09-12T08:54:38;100812.97;;;43.91;31.64
3544;BME280;1786;52.870;9.578;2022-09-12T08:57:08;100795.44;;;43.18;32.33
3544;BME280;1786;52.870;9.578;2022-09-12T08:59:39;100803.41;;;43.83;31.65
3544;BME280;1786;52.870;9.578;2022-09-12T09:02:31;100801.22;;;42.80;33.57
3544;BME280;1786;52.870;9.578;2022-09-12T09:05:24;100787.19;;;42.25;32.88
3544;BME280;1786;52.870;9.578;2022-09-12T09:10:56;100770.75;;;40.48;34.38
3544;BME280;1786;52.870;9.578;2022-09-12T09:13:40;100768.81;;;39.40;35.60
3544;BME280;1786;52.870;9.578;2022-09-12T09:16:43;100765.19;;;38.69;36.71
3544;BME280;1786;52.870;9.578;2022-09-12T09:19:14;100772.34;;;38.81;36.64
3544;BME280;1786;52.870;9.578;2022-09-12T09:21:58;100761.31;;;38.70;36.63
3544;BME280;1786;52.870;9.578;2022-09-12T09:24:32;100766.16;;;39.14;36.43
3544;BME280;1786;52.870;9.578;2022-09-12T09:27:28;100761.00;;;38.92;36.95
3544;BME280;1786;52.870;9.578;2022-09-12T09:30:13;100767.19;;;38.07;38.09
3544;BME280;1786;52.870;9.578;2022-09-12T09:32:41;100761.31;;;37.47;38.43
3544;BME280;1786;52.870;9.578;2022-09-12T09:35:28;100754.34;;;37.30;39.23
3544;BME280;1786;52.870;9.578;2022-09-12T09:38:24;100754.78;;;38.10;38.72
3544;BME280;1786;52.870;9.578;2022-09-12T09:43:49;100750.34;;;38.50;37.59
3544;BME280;1786;52.870;9.578;2022-09-12T09:46:16;100746.44;;;38.61;38.28
3544;BME280;1786;52.870;9.578;2022-09-12T09:48:46;100747.03;;;38.48;37.06
3544;BME280;1786;52.870;9.578;2022-09-12T09:51:16;100745.38;;;38.37;37.78
3544;BME280;1786;52.870;9.578;2022-09-12T09:53:57;100754.75;;;37.95;37.77
3544;BME280;1786;52.870;9.578;2022-09-12T09:56:27;100752.56;;;38.17;38.49
3544;BME280;1786;52.870;9.578;2022-09-12T09:58:54;100752.44;;;38.89;37.71
3544;BME280;1786;52.870;9.578;2022-09-12T10:01:21;100750.22;;;38.81;36.82
3544;BME280;1786;52.870;9.578;2022-09-12T10:03:52;100750.63;;;37.87;38.68
3544;BME280;1786;52.870;9.578;2022-09-12T10:08:47;100747.59;;;37.68;38.12
3544;BME280;1786;52.870;9.578;2022-09-12T10:16:25;100741.94;;;38.81;38.48
3544;BME280;1786;52.870;9.578;2022-09-12T10:19:01;100744.56;;;38.21;38.24
3544;BME280;1786;52.870;9.578;2022-09-12T10:21:34;100742.59;;;37.60;38.38
3544;BME280;1786;52.870;9.578;2022-09-12T10:26:51;100733.25;;;37.97;38.31
3544;BME280;1786;52.870;9.578;2022-09-12T10:29:30;100726.59;;;37.62;39.36
3544;BME280;1786;52.870;9.578;2022-09-12T10:32:00;100723.31;;;37.75;38.11
3544;BME280;1786;52.870;9.578;2022-09-12T10:37:06;100719.97;;;37.42;39.28
3544;BME280;1786;52.870;9.578;2022-09-12T10:39:34;100733.81;;;37.88;39.31
3544;BME280;1786;52.870;9.578;2022-09-12T10:42:03;100725.03;;;36.93;38.87
3544;BME280;1786;52.870;9.578;2022-09-12T10:44:32;100714.38;;;37.27;38.52
3544;BME280;1786;52.870;9.578;2022-09-12T10:47:19;100717.66;;;37.14;39.52
3544;BME280;1786;52.870;9.578;2022-09-12T10:49:47;100723.03;;;36.35;39.33
3544;BME280;1786;52.870;9.578;2022-09-12T10:52:21;100712.94;;;36.51;40.94
3544;BME280;1786;52.870;9.578;2022-09-12T10:54:50;100712.41;;;36.49;40.69
3544;BME280;1786;52.870;9.578;2022-09-12T10:57:35;100712.22;;;36.24;42.23
3544;BME280;1786;52.870;9.578;2022-09-12T11:00:10;100718.41;;;36.94;39.71
3544;BME280;1786;52.870;9.578;2022-09-12T11:03:14;100724.41;;;37.79;38.52
3544;BME280;1786;52.870;9.578;2022-09-12T11:08:33;100705.03;;;37.23;38.25
3544;BME280;1786;52.870;9.578;2022-09-12T11:11:22;100708.88;;;36.59;39.11
3544;BME280;1786;52.870;9.578;2022-09-12T11:14:16;100699.47;;;37.08;38.41
3544;BME280;1786;52.870;9.578;2022-09-12T11:25:11;100696.81;;;37.84;37.07
3544;BME280;1786;52.870;9.578;2022-09-12T11:33:43;100687.16;;;38.07;37.64
3544;BME280;1786;52.870;9.578;2022-09-12T11:39:00;100678.56;;;38.35;37.79
3544;BME280;1786;52.870;9.578;2022-09-12T11:41:37;100677.47;;;37.23;37.31
3544;BME280;1786;52.870;9.578;2022-09-12T11:44:19;100673.66;;;37.55;37.05
3544;BME280;1786;52.870;9.578;2022-09-12T11:46:48;100667.84;;;37.36;37.46
3544;BME280;1786;52.870;9.578;2022-09-12T11:52:14;100665.16;;;35.83;39.50
3544;BME280;1786;52.870;9.578;2022-09-12T11:54:56;100660.59;;;36.46;40.10
3544;BME280;1786;52.870;9.578;2022-09-12T11:57:48;100668.00;;;37.03;38.55
3544;BME280;1786;52.870;9.578;2022-09-12T12:03:08;100666.56;;;36.75;38.92
3544;BME280;1786;52.870;9.578;2022-09-12T12:05:41;100667.28;;;37.29;38.33
3544;BME280;1786;52.870;9.578;2022-09-12T12:08:09;100669.31;;;36.80;38.01
3544;BME280;1786;52.870;9.578;2022-09-12T12:10:41;100670.91;;;36.61;38.60
3544;BME280;1786;52.870;9.578;2022-09-12T12:13:22;100668.63;;;37.11;38.05
3544;BME280;1786;52.870;9.578;2022-09-12T12:15:58;100663.09;;;37.06;39.13
3544;BME280;1786;52.870;9.578;2022-09-12T12:18:27;100663.66;;;37.08;38.86
3544;BME280;1786;52.870;9.578;2022-09-12T12:20:56;100666.47;;;37.74;37.74
3544;BME280;1786;52.870;9.578;2022-09-12T12:34:37;100658.78;;;37.61;37.19
3544;BME280;1786;52.870;9.578;2022-09-12T12:44:58;100645.06;;;36.72;38.89
3544;BME280;1786;52.870;9.578;2022-09-12T12:47:28;100644.69;;;37.52;38.38
3544;BME280;1786;52.870;9.578;2022-09-12T12:50:02;100641.41;;;37.65;37.51
3544;BME280;1786;52.870;9.578;2022-09-12T12:52:41;100647.03;;;36.77;37.20
3544;BME280;1786;52.870;9.578;2022-09-12T12:55:31;100629.94;;;36.75;38.03
3544;BME280;1786;52.870;9.578;2022-09-12T12:58:05;100634.88;;;36.68;38.47
3544;BME280;1786;52.870;9.578;2022-09-12T13:00:34;100633.38;;;36.45;38.18
3544;BME280;1786;52.870;9.578;2022-09-12T13:05:46;100627.47;;;36.83;39.14
3544;BME280;1786;52.870;9.578;2022-09-12T13:10:53;100625.09;;;37.49;37.18
3544;BME280;1786;52.870;9.578;2022-09-12T13:13:26;100612.09;;;37.95;36.54
3544;BME280;1786;52.870;9.578;2022-09-12T13:15:53;100612.16;;;37.59;37.67
3544;BME280;1786;52.870;9.578;2022-09-12T13:18:24;100612.69;;;37.31;37.00
3544;BME280;1786;52.870;9.578;2022-09-12T13:21:17;100613.06;;;36.61;38.80
3544;BME280;1786;52.870;9.578;2022-09-12T13:23:59;100599.75;;;37.52;37.75
3544;BME280;1786;52.870;9.578;2022-09-12T13:26:32;100595.00;;;38.08;36.18
3544;BME280;1786;52.870;9.578;2022-09-12T13:29:16;100591.47;;;37.67;36.34
3544;BME280;1786;52.870;9.578;2022-09-12T13:31:59;100589.13;;;38.25;36.40
3544;BME280;1786;52.870;9.578;2022-09-12T13:34:34;100578.78;;;37.76;36.09
3544;BME280;1786;52.870;9.578;2022-09-12T13:42:47;100567.78;;;37.56;37.20
3544;BME280;1786;52.870;9.578;2022-09-12T13:45:19;100567.03;;;38.25;36.56
3544;BME280;1786;52.870;9.578;2022-09-12T13:48:15;100563.59;;;38.64;36.46
3544;BME280;1786;52.870;9.578;2022-09-12T13:50:50;100562.03;;;38.38;36.02
3544;BME280;1786;52.870;9.578;2022-09-12T13:53:20;100556.19;;;37.33;36.41
3544;BME280;1786;52.870;9.578;2022-09-12T13:55:52;100544.59;;;36.95;36.93
3544;BME280;1786;52.870;9.578;2022-09-12T14:01:04;100543.41;;;35.97;38.35
3544;BME280;1786;52.870;9.578;2022-09-12T14:03:37;100537.00;;;35.44;38.83
3544;BME280;1786;52.870;9.578;2022-09-12T14:06:25;100521.56;;;35.06;40.04
3544;BME280;1786;52.870;9.578;2022-09-12T14:08:54;100532.59;;;36.49;38.17
3544;BME280;1786;52.870;9.578;2022-09-12T14:11:28;100533.72;;;36.53;37.96
3544;BME280;1786;52.870;9.578;2022-09-12T14:13:56;100532.44;;;37.01;37.51
3544;BME280;1786;52.870;9.578;2022-09-12T14:16:23;100525.28;;;36.85;36.64
3544;BME280;1786;52.870;9.578;2022-09-12T14:18:52;100523.69;;;37.25;36.09
3544;BME280;1786;52.870;9.578;2022-09-12T14:21:31;100522.22;;;35.98;38.01
3544;BME280;1786;52.870;9.578;2022-09-12T14:24:00;100522.44;;;35.81;37.13
3544;BME280;1786;52.870;9.578;2022-09-12T14:26:29;100513.88;;;35.78;36.65
3544;BME280;1786;52.870;9.578;2022-09-12T14:29:00;100508.91;;;36.37;36.66
3544;BME280;1786;52.870;9.578;2022-09-12T14:31:35;100507.91;;;35.48;36.63
3544;BME280;1786;52.870;9.578;2022-09-12T14:34:16;100505.56;;;35.67;36.57
3544;BME280;1786;52.870;9.578;2022-09-12T14:36:45;100503.53;;;35.15;36.98
3544;BME280;1786;52.870;9.578;2022-09-12T14:39:30;100502.81;;;35.67;37.41
3544;BME280;1786;52.870;9.578;2022-09-12T14:42:17;100519.16;;;36.52;36.21
3544;BME280;1786;52.870;9.578;2022-09-12T14:44:58;100512.19;;;36.24;36.87
3544;BME280;1786;52.870;9.578;2022-09-12T14:47:30;100506.28;;;36.05;36.31
3544;BME280;1786;52.870;9.578;2022-09-12T14:50:00;100494.44;;;34.82;37.69
3544;BME280;1786;52.870;9.578;2022-09-12T14:52:33;100495.59;;;35.56;38.46
3544;BME280;1786;52.870;9.578;2022-09-12T14:55:19;100494.59;;;36.30;36.96
3544;BME280;1786;52.870;9.578;2022-09-12T14:58:13;100494.16;;;37.36;35.10
3544;BME280;1786;52.870;9.578;2022-09-12T15:06:01;100486.31;;;37.89;35.24
3544;BME280;1786;52.870;9.578;2022-09-12T15:08:30;100490.59;;;37.25;34.23
3544;BME280;1786;52.870;9.578;2022-09-12T15:10:57;100490.56;;;36.99;35.25
3544;BME280;1786;52.870;9.578;2022-09-12T15:13:26;100476.78;;;36.94;34.79
3544;BME280;1786;52.870;9.578;2022-09-12T15:15:55;100474.59;;;36.76;36.39
3544;BME280;1786;52.870;9.578;2022-09-12T15:18:27;100483.97;;;36.70;35.27
3544;BME280;1786;52.870;9.578;2022-09-12T15:20:56;100476.72;;;36.33;36.57
3544;BME280;1786;52.870;9.578;2022-09-12T15:25:53;100476.78;;;36.79;36.71
3544;BME280;1786;52.870;9.578;2022-09-12T15:28:21;100479.53;;;36.69;36.50
3544;BME280;1786;52.870;9.578;2022-09-12T15:30:51;100472.41;;;37.24;35.87
3544;BME280;1786;52.870;9.578;2022-09-12T15:33:19;100465.69;;;37.71;36.30
3544;BME280;1786;52.870;9.578;2022-09-12T15:35:49;100462.50;;;37.13;35.72
3544;BME280;1786;52.870;9.578;2022-09-12T15:38:15;100461.38;;;37.29;34.60
3544;BME280;1786;52.870;9.578;2022-09-12T15:40:42;100461.13;;;37.15;36.83